Atlantic Osprey — CFH8950 — position and weather

sailwx.info

Track history (hours):
 
Tides and Currents Weather Stations Pressure Air Temp Water Temp Dewpoint Dewpoint Depression Visibility Wind Speed Wind Dir Waves Ship Positions

Atlantic Osprey

Last reported at 2017-Oct-24 10:16 UTC. Time now 2017-Dec-14 10:19 UTC.
Position N 47°34' W 052°42'.
Warning: this ship's position is 51 days out of date.

Length 3 m; draft 5.5 m.

Type: Tug. MMSI: 316004850.

Date/timePositionNaut miles runAvg speedWind from/ knotsBaromVisibWave heightAir tempDewpointWater temp
2017-Oct-24 10:16N 47°34' W 052°42'1 1.1
2017-Oct-24 09:39N 47°33' W 052°43'0 0.0
2017-Oct-24 09:27N 47°33' W 052°43'0 0.0
2017-Oct-24 09:00N 47°33' W 052°43'0 0.0
2017-Oct-24 08:28N 47°33' W 052°43'0 0.0
2017-Oct-24 07:58N 47°33' W 052°43'0 0.0
2017-Oct-24 07:29N 47°33' W 052°43'0 0.0
2017-Oct-24 06:59N 47°33' W 052°43'0 0.0
2017-Oct-24 06:27N 47°33' W 052°43'0 0.0
2017-Oct-24 05:47N 47°33' W 052°43'0 0.0
2017-Oct-24 05:25N 47°33' W 052°43'0 0.0
2017-Oct-24 04:57N 47°33' W 052°43'0 0.0
2017-Oct-24 04:19N 47°33' W 052°43'0 0.0
2017-Oct-24 03:56N 47°33' W 052°43'0 0.0
2017-Oct-24 03:27N 47°33' W 052°43'0 0.0
2017-Oct-24 02:57N 47°33' W 052°43'0 0.0
2017-Oct-24 02:30N 47°33' W 052°43'0 0.0
2017-Oct-24 01:55N 47°33' W 052°43'0 0.0
2017-Oct-24 01:27N 47°33' W 052°43'0 0.0
2017-Oct-24 00:58N 47°33' W 052°43'0 0.0
2017-Oct-24 00:29N 47°33' W 052°43'0 0.0
2017-Oct-23 23:59N 47°33' W 052°43'0 0.0
2017-Oct-23 23:28N 47°33' W 052°43'0 0.0
2017-Oct-23 22:59N 47°33' W 052°43'0 0.0
2017-Oct-23 22:29N 47°33' W 052°43'0 0.0
2017-Oct-23 21:58N 47°33' W 052°43'0 0.0
2017-Oct-23 21:20N 47°33' W 052°43'0 0.0
2017-Oct-23 19:30N 47°33' W 052°43'0 0.0
2017-Oct-23 18:41N 47°33' W 052°43'0 0.2
2017-Oct-23 17:04N 47°34' W 052°42'2 0.2
2017-Oct-23 09:44N 47°33' W 052°40'1 5.5
2017-Oct-23 09:28N 47°34' W 052°42'1 1.6
2017-Oct-23 08:57N 47°33' W 052°43'0 0.0
2017-Oct-23 08:24N 47°33' W 052°43'0 0.0
2017-Oct-23 07:48N 47°33' W 052°43'0 0.0
2017-Oct-23 07:22N 47°33' W 052°43'0 0.0
2017-Oct-23 06:52N 47°33' W 052°43'0 0.0
2017-Oct-23 06:19N 47°33' W 052°43'0 0.0
2017-Oct-23 05:50N 47°33' W 052°43'0 0.0
2017-Oct-23 04:15N 47°33' W 052°43'0 0.1
2017-Oct-23 00:06N 47°34' W 052°42'1 4.3
2017-Oct-22 23:59N 47°34' W 052°41'2 3.5
2017-Oct-22 23:24N 47°34' W 052°38'1 1.0
2017-Oct-22 22:49N 47°34' W 052°39'1 2.8
2017-Oct-22 22:24N 47°34' W 052°41'1 2.9
2017-Oct-22 21:55N 47°33' W 052°43'0 0.0
2017-Oct-22 21:18N 47°33' W 052°43'0 0.0
2017-Oct-22 20:55N 47°33' W 052°43'0 0.0
2017-Oct-22 19:26N 47°33' W 052°43'0 0.0
2017-Oct-22 18:59N 47°33' W 052°43'0 0.0
2017-Oct-22 04:09N 47°33' W 052°43'0 0.0
2017-Oct-22 03:51N 47°33' W 052°43'0 0.0
2017-Oct-22 03:25N 47°33' W 052°43'0 0.0
2017-Oct-22 02:56N 47°33' W 052°43'0 0.0
2017-Oct-22 02:23N 47°33' W 052°43'0 0.0
2017-Oct-22 01:53N 47°33' W 052°43'0 0.0
2017-Oct-22 00:21N 47°33' W 052°43'0 0.0
2017-Oct-21 23:58N 47°33' W 052°43'0 0.0
2017-Oct-21 22:44N 47°33' W 052°43'0 0.0
2017-Oct-21 22:27N 47°33' W 052°43'0 0.0
2017-Oct-21 21:57N 47°33' W 052°43'0 0.0
2017-Oct-21 21:28N 47°33' W 052°43'0 0.0
2017-Oct-21 15:11N 47°33' W 052°43'0 0.0
2017-Oct-21 14:56N 47°33' W 052°43'0 0.0
2017-Oct-21 01:08N 47°33' W 052°43'0 0.0
2017-Oct-21 00:18N 47°33' W 052°43'0 0.0
2017-Oct-20 23:42N 47°33' W 052°43'0 0.0
2017-Oct-20 22:49N 47°33' W 052°43'0 0.0
2017-Oct-20 22:13N 47°33' W 052°43'0 0.0
2017-Oct-20 05:54N 47°33' W 052°43'0 0.0
2017-Oct-20 05:30N 47°33' W 052°43'0 0.0
2017-Oct-20 02:56N 47°33' W 052°43'0 0.0
2017-Oct-20 01:21N 47°33' W 052°43'0 0.0
2017-Oct-19 22:11N 47°33' W 052°43'0 0.0
2017-Oct-19 21:59N 47°33' W 052°43'0 0.0
2017-Oct-19 09:08N 47°33' W 052°43'0 0.0
2017-Oct-19 08:56N 47°33' W 052°43'0 0.0
2017-Oct-19 08:27N 47°33' W 052°43'0 0.0
2017-Oct-19 03:24N 47°33' W 052°43'0 0.0
2017-Oct-19 02:54N 47°33' W 052°43'0 0.0
2017-Oct-19 02:28N 47°33' W 052°43'0 0.0
2017-Oct-19 01:52N 47°33' W 052°43'0 0.0
2017-Oct-19 01:28N 47°33' W 052°43'0 0.0
2017-Oct-19 00:59N 47°33' W 052°43'0 0.0
2017-Oct-19 00:29N 47°33' W 052°43'0 0.0
2017-Oct-18 23:44N 47°33' W 052°43'0 0.0
2017-Oct-18 23:15N 47°33' W 052°43'0 0.0
2017-Oct-18 22:57N 47°33' W 052°43'0 0.0
2017-Oct-18 22:27N 47°33' W 052°43'0 0.0
2017-Oct-18 21:52N 47°33' W 052°43'0 0.0
2017-Oct-18 21:28N 47°33' W 052°43'0 0.0
2017-Oct-18 09:30N 47°33' W 052°43'0 0.0
2017-Oct-18 08:57N 47°33' W 052°43'0 0.0
2017-Oct-18 08:25N 47°33' W 052°43'0 0.0
2017-Oct-18 07:58N 47°33' W 052°43'0 0.0
2017-Oct-18 07:20N 47°33' W 052°43'0 0.0
2017-Oct-18 06:47N 47°33' W 052°43'0 0.0
2017-Oct-18 06:29N 47°33' W 052°43'0 0.0
2017-Oct-18 05:12N 47°33' W 052°43'0 0.0
2017-Oct-18 05:00N 47°33' W 052°43'0 0.0
2017-Oct-18 04:24N 47°33' W 052°43'0 0.0
2017-Oct-18 03:58N 47°33' W 052°43'0 0.0
2017-Oct-18 03:28N 47°33' W 052°43'0 0.0
2017-Oct-18 02:44N 47°33' W 052°43'0 0.0
2017-Oct-18 02:23N 47°33' W 052°43'0 0.0
2017-Oct-18 01:44N 47°33' W 052°43'0 0.0
2017-Oct-18 01:18N 47°33' W 052°43'0 0.0
2017-Oct-18 00:57N 47°33' W 052°43'0 0.0
2017-Oct-17 23:49N 47°33' W 052°43'0 0.0
2017-Oct-17 23:28N 47°33' W 052°43'0 0.0
2017-Oct-17 22:58N 47°33' W 052°43'0 0.0
2017-Oct-17 22:25N 47°33' W 052°43'0 0.0
2017-Oct-17 21:53N 47°33' W 052°43'0 0.0
2017-Oct-17 21:26N 47°33' W 052°43'0 0.0
2017-Oct-17 20:51N 47°33' W 052°43'0 0.0
2017-Oct-17 20:15N 47°33' W 052°43'0 0.0
2017-Oct-17 19:51N 47°33' W 052°43'0 0.0
2017-Oct-17 19:10N 47°33' W 052°43'0 0.0
2017-Oct-17 18:46N 47°33' W 052°43'0 0.0
2017-Oct-17 17:05N 47°33' W 052°43'0 0.0
2017-Oct-17 16:53N 47°33' W 052°43'0 0.0
2017-Oct-17 11:09N 47°33' W 052°43'0 0.0
2017-Oct-17 10:45N 47°33' W 052°43'0 0.0
2017-Oct-17 10:28N 47°33' W 052°43'0 0.0
2017-Oct-17 09:52N 47°33' W 052°43'0 0.0
2017-Oct-17 09:25N 47°33' W 052°43'0 0.0
2017-Oct-17 08:41N 47°33' W 052°43'0 0.0
2017-Oct-17 08:17N 47°33' W 052°43'0 0.0
2017-Oct-17 07:53N 47°33' W 052°43'0 0.0
2017-Oct-17 05:43N 47°33' W 052°43'0 0.0
2017-Oct-17 03:08N 47°33' W 052°43'0 0.0
2017-Oct-17 02:45N 47°33' W 052°43'0 0.0
2017-Oct-17 02:21N 47°33' W 052°43'0 0.0
2017-Oct-17 01:51N 47°33' W 052°43'0 0.0
2017-Oct-16 21:30N 47°33' W 052°43'0 0.0
2017-Oct-16 11:37N 47°33' W 052°43'0 0.0
2017-Oct-16 09:06N 47°33' W 052°43'0 0.0
2017-Oct-16 09:00N 47°33' W 052°43'0 0.0
2017-Oct-16 08:27N 47°33' W 052°43'0 0.0
2017-Oct-16 07:19N 47°33' W 052°43'0 0.0
2017-Oct-16 06:52N 47°33' W 052°43'0 0.0
2017-Oct-16 05:17N 47°33' W 052°43'0 0.0
2017-Oct-16 04:47N 47°33' W 052°43'0 0.0
2017-Oct-16 04:18N 47°33' W 052°43'0 0.0
2017-Oct-16 03:54N 47°33' W 052°43'0 0.0
2017-Oct-16 03:18N 47°33' W 052°43'0 0.0
2017-Oct-16 02:55N 47°33' W 052°43'0 0.0
2017-Oct-16 02:13N 47°33' W 052°43'0 0.0
2017-Oct-16 01:55N 47°33' W 052°43'0 0.0
2017-Oct-16 01:08N 47°33' W 052°43'0 0.0
2017-Oct-16 00:56N 47°33' W 052°43'0 0.0
2017-Oct-16 00:26N 47°33' W 052°43'0 0.0
2017-Oct-15 23:57N 47°33' W 052°43'0 0.0
2017-Oct-15 23:24N 47°33' W 052°43'0 0.0
2017-Oct-15 22:49N 47°33' W 052°43'0 0.0
2017-Oct-15 22:28N 47°33' W 052°43'0 0.0
2017-Oct-15 21:52N 47°33' W 052°43'0 0.0
2017-Oct-15 09:24N 47°33' W 052°43'0 0.0
2017-Oct-15 08:46N 47°33' W 052°43'0 0.0
2017-Oct-15 07:38N 47°33' W 052°43'0 0.0
2017-Oct-15 07:08N 47°33' W 052°43'0 0.0
2017-Oct-15 06:59N 47°33' W 052°43'0 0.0
2017-Oct-15 06:29N 47°33' W 052°43'0 0.0
2017-Oct-15 05:57N 47°33' W 052°43'0 0.0
2017-Oct-15 05:12N 47°33' W 052°43'0 0.0
2017-Oct-15 04:57N 47°33' W 052°43'0 0.0
2017-Oct-15 03:28N 47°33' W 052°43'0 0.0
2017-Oct-15 02:56N 47°33' W 052°43'0 0.0
2017-Oct-15 02:17N 47°33' W 052°43'0 0.0
2017-Oct-15 01:48N 47°33' W 052°43'0 0.0
2017-Oct-15 01:30N 47°33' W 052°43'  
Track history (hours):
 
Tides and Currents Weather Stations Pressure Air Temp Water Temp Dewpoint Dewpoint Depression Visibility Wind Speed Wind Dir Waves Ship Positions

Atlantic Osprey

Last reported at 2017-Oct-24 10:16 UTC. Time now 2017-Dec-14 10:19 UTC.
Position N 47°34' W 052°42'.
Warning: this ship's position is 51 days out of date.

Length 3 m; draft 5.5 m.

Type: Tug. MMSI: 316004850.

Date/timePositionNaut miles runAvg speedWind from/ knotsBaromVisibWave heightAir tempDewpointWater temp
2017-Oct-24 10:16N 47°34' W 052°42'1 1.1
2017-Oct-24 09:39N 47°33' W 052°43'0 0.0
2017-Oct-24 09:27N 47°33' W 052°43'0 0.0
2017-Oct-24 09:00N 47°33' W 052°43'0 0.0
2017-Oct-24 08:28N 47°33' W 052°43'0 0.0
2017-Oct-24 07:58N 47°33' W 052°43'0 0.0
2017-Oct-24 07:29N 47°33' W 052°43'0 0.0
2017-Oct-24 06:59N 47°33' W 052°43'0 0.0
2017-Oct-24 06:27N 47°33' W 052°43'0 0.0
2017-Oct-24 05:47N 47°33' W 052°43'0 0.0
2017-Oct-24 05:25N 47°33' W 052°43'0 0.0
2017-Oct-24 04:57N 47°33' W 052°43'0 0.0
2017-Oct-24 04:19N 47°33' W 052°43'0 0.0
2017-Oct-24 03:56N 47°33' W 052°43'0 0.0
2017-Oct-24 03:27N 47°33' W 052°43'0 0.0
2017-Oct-24 02:57N 47°33' W 052°43'0 0.0
2017-Oct-24 02:30N 47°33' W 052°43'0 0.0
2017-Oct-24 01:55N 47°33' W 052°43'0 0.0
2017-Oct-24 01:27N 47°33' W 052°43'0 0.0
2017-Oct-24 00:58N 47°33' W 052°43'0 0.0
2017-Oct-24 00:29N 47°33' W 052°43'0 0.0
2017-Oct-23 23:59N 47°33' W 052°43'0 0.0
2017-Oct-23 23:28N 47°33' W 052°43'0 0.0
2017-Oct-23 22:59N 47°33' W 052°43'0 0.0
2017-Oct-23 22:29N 47°33' W 052°43'0 0.0
2017-Oct-23 21:58N 47°33' W 052°43'0 0.0
2017-Oct-23 21:20N 47°33' W 052°43'0 0.0
2017-Oct-23 19:30N 47°33' W 052°43'0 0.0
2017-Oct-23 18:41N 47°33' W 052°43'0 0.2
2017-Oct-23 17:04N 47°34' W 052°42'2 0.2
2017-Oct-23 09:44N 47°33' W 052°40'1 5.5
2017-Oct-23 09:28N 47°34' W 052°42'1 1.6
2017-Oct-23 08:57N 47°33' W 052°43'0 0.0
2017-Oct-23 08:24N 47°33' W 052°43'0 0.0
2017-Oct-23 07:48N 47°33' W 052°43'0 0.0
2017-Oct-23 07:22N 47°33' W 052°43'0 0.0
2017-Oct-23 06:52N 47°33' W 052°43'0 0.0
2017-Oct-23 06:19N 47°33' W 052°43'0 0.0
2017-Oct-23 05:50N 47°33' W 052°43'0 0.0
2017-Oct-23 04:15N 47°33' W 052°43'0 0.1
2017-Oct-23 00:06N 47°34' W 052°42'1 4.3
2017-Oct-22 23:59N 47°34' W 052°41'2 3.5
2017-Oct-22 23:24N 47°34' W 052°38'1 1.0
2017-Oct-22 22:49N 47°34' W 052°39'1 2.8
2017-Oct-22 22:24N 47°34' W 052°41'1 2.9
2017-Oct-22 21:55N 47°33' W 052°43'0 0.0
2017-Oct-22 21:18N 47°33' W 052°43'0 0.0
2017-Oct-22 20:55N 47°33' W 052°43'0 0.0
2017-Oct-22 19:26N 47°33' W 052°43'0 0.0
2017-Oct-22 18:59N 47°33' W 052°43'0 0.0
2017-Oct-22 04:09N 47°33' W 052°43'0 0.0
2017-Oct-22 03:51N 47°33' W 052°43'0 0.0
2017-Oct-22 03:25N 47°33' W 052°43'0 0.0
2017-Oct-22 02:56N 47°33' W 052°43'0 0.0
2017-Oct-22 02:23N 47°33' W 052°43'0 0.0
2017-Oct-22 01:53N 47°33' W 052°43'0 0.0
2017-Oct-22 00:21N 47°33' W 052°43'0 0.0
2017-Oct-21 23:58N 47°33' W 052°43'0 0.0
2017-Oct-21 22:44N 47°33' W 052°43'0 0.0
2017-Oct-21 22:27N 47°33' W 052°43'0 0.0
2017-Oct-21 21:57N 47°33' W 052°43'0 0.0
2017-Oct-21 21:28N 47°33' W 052°43'0 0.0
2017-Oct-21 15:11N 47°33' W 052°43'0 0.0
2017-Oct-21 14:56N 47°33' W 052°43'0 0.0
2017-Oct-21 01:08N 47°33' W 052°43'0 0.0
2017-Oct-21 00:18N 47°33' W 052°43'0 0.0
2017-Oct-20 23:42N 47°33' W 052°43'0 0.0
2017-Oct-20 22:49N 47°33' W 052°43'0 0.0
2017-Oct-20 22:13N 47°33' W 052°43'0 0.0
2017-Oct-20 05:54N 47°33' W 052°43'0 0.0
2017-Oct-20 05:30N 47°33' W 052°43'0 0.0
2017-Oct-20 02:56N 47°33' W 052°43'0 0.0
2017-Oct-20 01:21N 47°33' W 052°43'0 0.0
2017-Oct-19 22:11N 47°33' W 052°43'0 0.0
2017-Oct-19 21:59N 47°33' W 052°43'0 0.0
2017-Oct-19 09:08N 47°33' W 052°43'0 0.0
2017-Oct-19 08:56N 47°33' W 052°43'0 0.0
2017-Oct-19 08:27N 47°33' W 052°43'0 0.0
2017-Oct-19 03:24N 47°33' W 052°43'0 0.0
2017-Oct-19 02:54N 47°33' W 052°43'0 0.0
2017-Oct-19 02:28N 47°33' W 052°43'0 0.0
2017-Oct-19 01:52N 47°33' W 052°43'0 0.0
2017-Oct-19 01:28N 47°33' W 052°43'0 0.0
2017-Oct-19 00:59N 47°33' W 052°43'0 0.0
2017-Oct-19 00:29N 47°33' W 052°43'0 0.0
2017-Oct-18 23:44N 47°33' W 052°43'0 0.0
2017-Oct-18 23:15N 47°33' W 052°43'0 0.0
2017-Oct-18 22:57N 47°33' W 052°43'0 0.0
2017-Oct-18 22:27N 47°33' W 052°43'0 0.0
2017-Oct-18 21:52N 47°33' W 052°43'0 0.0
2017-Oct-18 21:28N 47°33' W 052°43'0 0.0
2017-Oct-18 09:30N 47°33' W 052°43'0 0.0
2017-Oct-18 08:57N 47°33' W 052°43'0 0.0
2017-Oct-18 08:25N 47°33' W 052°43'0 0.0
2017-Oct-18 07:58N 47°33' W 052°43'0 0.0
2017-Oct-18 07:20N 47°33' W 052°43'0 0.0
2017-Oct-18 06:47N 47°33' W 052°43'0 0.0
2017-Oct-18 06:29N 47°33' W 052°43'0 0.0
2017-Oct-18 05:12N 47°33' W 052°43'0 0.0
2017-Oct-18 05:00N 47°33' W 052°43'0 0.0
2017-Oct-18 04:24N 47°33' W 052°43'0 0.0
2017-Oct-18 03:58N 47°33' W 052°43'0 0.0
2017-Oct-18 03:28N 47°33' W 052°43'0 0.0
2017-Oct-18 02:44N 47°33' W 052°43'0 0.0
2017-Oct-18 02:23N 47°33' W 052°43'0 0.0
2017-Oct-18 01:44N 47°33' W 052°43'0 0.0
2017-Oct-18 01:18N 47°33' W 052°43'0 0.0
2017-Oct-18 00:57N 47°33' W 052°43'0 0.0
2017-Oct-17 23:49N 47°33' W 052°43'0 0.0
2017-Oct-17 23:28N 47°33' W 052°43'0 0.0
2017-Oct-17 22:58N 47°33' W 052°43'0 0.0
2017-Oct-17 22:25N 47°33' W 052°43'0 0.0
2017-Oct-17 21:53N 47°33' W 052°43'0 0.0
2017-Oct-17 21:26N 47°33' W 052°43'0 0.0
2017-Oct-17 20:51N 47°33' W 052°43'0 0.0
2017-Oct-17 20:15N 47°33' W 052°43'0 0.0
2017-Oct-17 19:51N 47°33' W 052°43'0 0.0
2017-Oct-17 19:10N 47°33' W 052°43'0 0.0
2017-Oct-17 18:46N 47°33' W 052°43'0 0.0
2017-Oct-17 17:05N 47°33' W 052°43'0 0.0
2017-Oct-17 16:53N 47°33' W 052°43'0 0.0
2017-Oct-17 11:09N 47°33' W 052°43'0 0.0
2017-Oct-17 10:45N 47°33' W 052°43'0 0.0
2017-Oct-17 10:28N 47°33' W 052°43'0 0.0
2017-Oct-17 09:52N 47°33' W 052°43'0 0.0
2017-Oct-17 09:25N 47°33' W 052°43'0 0.0
2017-Oct-17 08:41N 47°33' W 052°43'0 0.0
2017-Oct-17 08:17N 47°33' W 052°43'0 0.0
2017-Oct-17 07:53N 47°33' W 052°43'0 0.0
2017-Oct-17 05:43N 47°33' W 052°43'0 0.0
2017-Oct-17 03:08N 47°33' W 052°43'0 0.0
2017-Oct-17 02:45N 47°33' W 052°43'0 0.0
2017-Oct-17 02:21N 47°33' W 052°43'0 0.0
2017-Oct-17 01:51N 47°33' W 052°43'0 0.0
2017-Oct-16 21:30N 47°33' W 052°43'0 0.0
2017-Oct-16 11:37N 47°33' W 052°43'0 0.0
2017-Oct-16 09:06N 47°33' W 052°43'0 0.0
2017-Oct-16 09:00N 47°33' W 052°43'0 0.0
2017-Oct-16 08:27N 47°33' W 052°43'0 0.0
2017-Oct-16 07:19N 47°33' W 052°43'0 0.0
2017-Oct-16 06:52N 47°33' W 052°43'0 0.0
2017-Oct-16 05:17N 47°33' W 052°43'0 0.0
2017-Oct-16 04:47N 47°33' W 052°43'0 0.0
2017-Oct-16 04:18N 47°33' W 052°43'0 0.0
2017-Oct-16 03:54N 47°33' W 052°43'0 0.0
2017-Oct-16 03:18N 47°33' W 052°43'0 0.0
2017-Oct-16 02:55N 47°33' W 052°43'0 0.0
2017-Oct-16 02:13N 47°33' W 052°43'0 0.0
2017-Oct-16 01:55N 47°33' W 052°43'0 0.0
2017-Oct-16 01:08N 47°33' W 052°43'0 0.0
2017-Oct-16 00:56N 47°33' W 052°43'0 0.0
2017-Oct-16 00:26N 47°33' W 052°43'0 0.0
2017-Oct-15 23:57N 47°33' W 052°43'0 0.0
2017-Oct-15 23:24N 47°33' W 052°43'0 0.0
2017-Oct-15 22:49N 47°33' W 052°43'0 0.0
2017-Oct-15 22:28N 47°33' W 052°43'0 0.0
2017-Oct-15 21:52N 47°33' W 052°43'0 0.0
2017-Oct-15 09:24N 47°33' W 052°43'0 0.0
2017-Oct-15 08:46N 47°33' W 052°43'0 0.0
2017-Oct-15 07:38N 47°33' W 052°43'0 0.0
2017-Oct-15 07:08N 47°33' W 052°43'0 0.0
2017-Oct-15 06:59N 47°33' W 052°43'0 0.0
2017-Oct-15 06:29N 47°33' W 052°43'0 0.0
2017-Oct-15 05:57N 47°33' W 052°43'0 0.0
2017-Oct-15 05:12N 47°33' W 052°43'0 0.0
2017-Oct-15 04:57N 47°33' W 052°43'0 0.0
2017-Oct-15 03:28N 47°33' W 052°43'0 0.0
2017-Oct-15 02:56N 47°33' W 052°43'0 0.0
2017-Oct-15 02:17N 47°33' W 052°43'0 0.0
2017-Oct-15 01:48N 47°33' W 052°43'0 0.0
2017-Oct-15 01:30N 47°33' W 052°43'  

Dump ship's entire track history